createdAt,value
2018-10-16T00:00:48.428Z,8.50
2018-10-16T00:05:51.770Z,8.30
2018-10-16T00:10:55.236Z,8.10
2018-10-16T00:15:58.585Z,8.10
2018-10-16T00:21:02.082Z,8.00
2018-10-16T00:26:05.680Z,7.90
2018-10-16T00:31:08.933Z,8.10
2018-10-16T00:36:12.298Z,8.20
2018-10-16T00:41:15.850Z,8.10
2018-10-16T00:46:19.187Z,8.20
2018-10-16T00:51:22.588Z,7.90
2018-10-16T00:56:25.933Z,8.00
2018-10-16T01:01:30.217Z,8.00
2018-10-16T01:06:34.505Z,7.90
2018-10-16T01:11:38.202Z,7.70
2018-10-16T01:16:41.669Z,7.50
2018-10-16T01:21:45.026Z,7.50
2018-10-16T01:26:49.521Z,7.30
2018-10-16T01:31:52.892Z,7.00
2018-10-16T01:36:56.164Z,7.10
2018-10-16T01:41:59.511Z,7.10
2018-10-16T01:47:02.917Z,7.10
2018-10-16T01:52:06.389Z,7.40
2018-10-16T01:57:09.733Z,7.40
2018-10-16T02:02:13.069Z,7.40
2018-10-16T02:07:16.452Z,7.30
2018-10-16T02:12:19.841Z,7.30
2018-10-16T02:17:23.282Z,7.00
2018-10-16T02:22:26.626Z,7.10
2018-10-16T02:27:29.941Z,7.30
2018-10-16T02:32:33.274Z,7.20
2018-10-16T02:37:36.640Z,7.20
2018-10-16T02:42:40.564Z,7.10
2018-10-16T02:47:43.801Z,7.00
2018-10-16T02:57:51.191Z,6.40
2018-10-16T03:02:54.791Z,6.30
2018-10-16T03:07:58.312Z,6.40
2018-10-16T03:13:01.930Z,6.50
2018-10-16T03:18:05.493Z,6.50
2018-10-16T03:23:09.151Z,6.60
2018-10-16T03:28:12.684Z,6.60
2018-10-16T03:33:16.327Z,6.60
2018-10-16T03:38:19.620Z,6.70
2018-10-16T03:43:22.906Z,6.70
2018-10-16T03:48:26.285Z,6.60
2018-10-16T03:53:29.591Z,6.60
2018-10-16T03:58:32.933Z,6.60
2018-10-16T04:08:39.408Z,6.50
2018-10-16T04:13:42.822Z,6.40
2018-10-16T04:18:46.134Z,6.40
2018-10-16T04:23:49.553Z,6.10
2018-10-16T04:28:52.964Z,6.20
2018-10-16T04:33:56.237Z,6.00
2018-10-16T04:38:59.558Z,5.80
2018-10-16T04:44:03.089Z,5.70
2018-10-16T04:49:06.633Z,6.00
2018-10-16T04:54:10.081Z,5.70
2018-10-16T04:59:13.383Z,5.60
2018-10-16T05:04:16.923Z,5.60
2018-10-16T05:09:20.174Z,5.60
2018-10-16T05:14:23.537Z,5.60
2018-10-16T05:19:26.888Z,5.50
2018-10-16T05:24:30.202Z,5.40
2018-10-16T05:29:33.888Z,5.60
2018-10-16T05:34:37.233Z,5.60
2018-10-16T05:39:40.560Z,5.70
2018-10-16T05:44:43.999Z,5.90
2018-10-16T05:49:47.308Z,5.80
2018-10-16T05:54:50.828Z,5.80
2018-10-16T06:00:06.280Z,5.90
2018-10-16T06:10:13.454Z,6.10
2018-10-16T06:15:17.048Z,6.20
2018-10-16T06:20:20.553Z,6.30
2018-10-16T06:25:23.905Z,6.30
2018-10-16T06:30:27.345Z,6.30
2018-10-16T06:35:30.701Z,6.40
2018-10-16T06:40:34.245Z,6.60
2018-10-16T06:45:37.573Z,6.80
2018-10-16T06:50:41.031Z,6.90
2018-10-16T06:55:50.022Z,6.80
2018-10-16T07:00:53.485Z,7.00
2018-10-16T07:05:56.924Z,7.20
2018-10-16T07:11:00.358Z,7.50
2018-10-16T07:16:03.919Z,7.60
2018-10-16T07:21:07.376Z,7.80
2018-10-16T07:26:10.714Z,7.80
2018-10-16T07:31:14.052Z,7.90
2018-10-16T07:36:17.429Z,8.00
2018-10-16T07:41:26.183Z,8.10
2018-10-16T07:46:31.556Z,8.30
2018-10-16T07:51:36.264Z,8.40
2018-10-16T07:56:40.669Z,8.40
2018-10-16T08:01:44.041Z,8.50
2018-10-16T08:06:47.352Z,8.70
2018-10-16T08:11:51.092Z,9.00
2018-10-16T08:16:54.454Z,9.20
2018-10-16T08:21:57.849Z,9.60
2018-10-16T08:27:01.423Z,10.20
2018-10-16T08:32:04.930Z,10.20
2018-10-16T08:37:10.518Z,10.50
2018-10-16T08:42:33.033Z,10.70
2018-10-16T08:47:47.744Z,10.90
2018-10-16T08:52:51.078Z,11.00
2018-10-16T08:57:54.356Z,11.30
2018-10-16T09:02:57.757Z,11.40
2018-10-16T09:08:01.086Z,11.70
2018-10-16T09:13:04.457Z,12.20
2018-10-16T09:18:07.951Z,12.50
2018-10-16T09:23:11.208Z,12.50
2018-10-16T09:28:14.529Z,12.90
2018-10-16T09:33:17.991Z,12.90
2018-10-16T09:43:24.561Z,14.20
2018-10-16T09:48:28.032Z,13.90
2018-10-16T09:53:31.405Z,14.10
2018-10-16T09:58:34.787Z,14.00
2018-10-16T10:03:38.324Z,14.50
2018-10-16T10:08:41.741Z,14.60
2018-10-16T10:13:45.045Z,14.90
2018-10-16T10:18:48.317Z,15.40
2018-10-16T10:23:51.626Z,15.60
2018-10-16T10:28:54.957Z,15.80
2018-10-16T10:33:58.682Z,16.00
2018-10-16T10:39:02.123Z,16.10
2018-10-16T10:44:05.815Z,16.50
2018-10-16T10:49:09.453Z,16.40
2018-10-16T10:54:12.952Z,16.60
2018-10-16T10:59:16.297Z,17.10
2018-10-16T11:04:19.682Z,17.20
2018-10-16T11:09:23.091Z,16.80
2018-10-16T11:14:27.154Z,17.00
2018-10-16T11:19:30.713Z,17.80
2018-10-16T11:24:34.078Z,18.20
2018-10-16T11:29:37.449Z,17.80
2018-10-16T11:34:40.818Z,18.20
2018-10-16T11:39:44.239Z,18.80
2018-10-16T11:44:47.525Z,18.90
2018-10-16T11:49:50.820Z,19.00
2018-10-16T11:54:54.090Z,18.20
2018-10-16T11:59:57.412Z,18.90
2018-10-16T12:05:00.697Z,18.90
2018-10-16T12:10:04.044Z,19.30
2018-10-16T12:15:07.749Z,19.30
2018-10-16T12:20:16.848Z,19.30
2018-10-16T12:25:20.153Z,19.50
2018-10-16T12:30:23.518Z,20.00
2018-10-16T12:35:26.787Z,20.30
2018-10-16T12:40:30.064Z,20.50
2018-10-16T12:45:33.326Z,20.60
2018-10-16T12:50:36.737Z,20.50
2018-10-16T12:55:39.996Z,20.90
2018-10-16T13:00:43.363Z,21.00
2018-10-16T13:05:46.730Z,21.00
2018-10-16T13:10:49.985Z,21.00
2018-10-16T13:15:53.301Z,20.70
2018-10-16T13:20:56.550Z,21.30
2018-10-16T13:25:59.867Z,21.50
2018-10-16T13:31:03.224Z,21.60
2018-10-16T13:36:06.574Z,21.60
2018-10-16T13:41:09.847Z,21.30
2018-10-16T13:46:13.252Z,21.60
2018-10-16T13:51:16.432Z,21.70
2018-10-16T13:56:19.706Z,21.80
2018-10-16T14:01:23.017Z,22.00
2018-10-16T14:06:26.328Z,22.00
2018-10-16T14:11:29.571Z,21.90
2018-10-16T14:16:32.859Z,22.00
2018-10-16T14:21:36.269Z,22.40
2018-10-16T14:26:39.590Z,22.00
2018-10-16T14:31:42.870Z,22.00
2018-10-16T14:36:46.237Z,21.70
2018-10-16T14:41:49.513Z,21.30
2018-10-16T14:46:52.863Z,21.30
2018-10-16T14:51:56.134Z,21.00
2018-10-16T14:56:59.489Z,20.80
2018-10-16T15:02:02.767Z,20.60
2018-10-16T15:07:06.102Z,20.40
2018-10-16T15:12:09.468Z,20.30
2018-10-16T15:17:12.764Z,20.30
2018-10-16T15:22:16.106Z,20.20
2018-10-16T15:27:19.318Z,20.10
2018-10-16T15:32:22.710Z,19.70
2018-10-16T15:37:25.989Z,19.50
2018-10-16T15:42:29.364Z,19.30
2018-10-16T15:47:32.716Z,19.00
2018-10-16T15:52:36.062Z,18.90
2018-10-16T15:57:39.472Z,18.70
2018-10-16T16:02:42.716Z,18.50
2018-10-16T16:07:46.215Z,18.20
2018-10-16T16:12:49.478Z,17.80
2018-10-16T16:17:52.842Z,17.60
2018-10-16T16:22:56.086Z,17.40
2018-10-16T16:27:59.454Z,17.10
2018-10-16T16:33:02.752Z,16.80
2018-10-16T16:38:06.213Z,16.60
2018-10-16T16:43:09.616Z,16.40
2018-10-16T16:48:14.072Z,16.20
2018-10-16T16:53:17.410Z,16.00
2018-10-16T16:58:20.852Z,15.80
2018-10-16T17:03:24.209Z,15.50
2018-10-16T17:08:27.685Z,15.40
2018-10-16T17:13:31.002Z,15.10
2018-10-16T17:18:34.304Z,15.00
2018-10-16T17:23:37.963Z,15.00
2018-10-16T17:28:41.356Z,14.80
2018-10-16T17:33:44.816Z,14.60
2018-10-16T17:38:48.103Z,14.40
2018-10-16T17:43:51.544Z,14.10
2018-10-16T17:48:54.812Z,13.90
2018-10-16T17:53:58.092Z,13.80
2018-10-16T17:59:01.505Z,13.70
2018-10-16T18:04:05.016Z,13.70
2018-10-16T18:09:08.578Z,13.50
2018-10-16T18:14:14.251Z,13.40
2018-10-16T18:19:17.623Z,13.40
2018-10-16T18:24:20.972Z,13.50
2018-10-16T18:29:24.510Z,13.30
2018-10-16T18:34:28.166Z,13.30
2018-10-16T18:39:31.777Z,13.20
2018-10-16T18:44:35.593Z,13.00
2018-10-16T18:49:39.272Z,12.80
2018-10-16T18:54:42.831Z,12.60
2018-10-16T18:59:46.266Z,12.60
2018-10-16T19:04:49.688Z,12.60
2018-10-16T19:09:55.077Z,12.50
2018-10-16T19:14:58.678Z,12.50
2018-10-16T19:20:02.140Z,12.40
2018-10-16T19:25:06.252Z,12.50
2018-10-16T19:30:10.827Z,12.60
2018-10-16T19:35:15.354Z,12.40
2018-10-16T19:40:18.758Z,12.10
2018-10-16T19:45:22.466Z,12.20
2018-10-16T19:50:26.721Z,12.30
2018-10-16T19:55:30.212Z,12.40
2018-10-16T20:00:33.543Z,12.40
2018-10-16T20:05:37.253Z,12.30
2018-10-16T20:10:40.805Z,12.40
2018-10-16T20:15:44.559Z,12.30
2018-10-16T20:20:48.011Z,12.20
2018-10-16T20:25:51.296Z,12.20
2018-10-16T20:30:54.924Z,11.80
2018-10-16T20:35:58.456Z,11.40
2018-10-16T20:41:02.121Z,11.00
2018-10-16T20:46:06.387Z,11.10
2018-10-16T20:51:10.696Z,11.10
2018-10-16T20:56:14.234Z,11.10
2018-10-16T21:01:18.098Z,11.20
2018-10-16T21:06:23.034Z,11.10
2018-10-16T21:11:26.364Z,11.00
2018-10-16T21:16:30.168Z,10.90
2018-10-16T21:21:33.586Z,10.90
2018-10-16T21:26:37.186Z,11.00
2018-10-16T21:31:40.758Z,11.20
2018-10-16T21:36:44.251Z,11.00
2018-10-16T21:41:47.595Z,11.00
2018-10-16T21:46:51.584Z,10.80
2018-10-16T21:51:55.583Z,10.80
2018-10-16T21:56:59.954Z,11.00
2018-10-16T22:02:08.532Z,10.90
2018-10-16T22:07:11.912Z,10.80
2018-10-16T22:12:15.219Z,10.70
2018-10-16T22:17:18.526Z,10.30
2018-10-16T22:22:21.829Z,10.50
2018-10-16T22:27:25.151Z,10.30
2018-10-16T22:32:28.439Z,10.40
2018-10-16T22:37:31.707Z,10.20
2018-10-16T22:42:35.072Z,10.30
2018-10-16T22:47:38.330Z,10.10
2018-10-16T22:52:41.622Z,9.80
2018-10-16T22:57:44.883Z,10.00
2018-10-16T23:02:48.612Z,9.80
2018-10-16T23:07:51.872Z,9.90
2018-10-16T23:13:05.698Z,9.80
2018-10-16T23:18:09.081Z,9.70
2018-10-16T23:23:12.524Z,9.70
2018-10-16T23:28:15.829Z,9.30
2018-10-16T23:33:19.171Z,9.00
2018-10-16T23:38:22.449Z,8.90
2018-10-16T23:43:25.877Z,8.80
2018-10-16T23:48:29.100Z,8.70
2018-10-16T23:53:32.399Z,8.70
2018-10-16T23:58:35.721Z,8.80
